sensor_id;sensor_type;location;lat;lon;timestamp;pressure;altitude;pressure_sealevel;temperature;humidity
75409;BME280;63979;55.644;37.734;2022-12-18T00:04:29;99737.66;;;-3.24;79.98
75409;BME280;63979;55.644;37.734;2022-12-18T00:09:30;99715.19;;;-3.34;79.62
75409;BME280;63979;55.644;37.734;2022-12-18T00:14:31;99703.81;;;-3.30;79.56
75409;BME280;63979;55.644;37.734;2022-12-18T00:19:32;99703.09;;;-3.39;79.36
75409;BME280;63979;55.644;37.734;2022-12-18T00:24:32;99706.59;;;-3.40;80.36
75409;BME280;63979;55.644;37.734;2022-12-18T00:29:34;99710.94;;;-3.41;79.82
75409;BME280;63979;55.644;37.734;2022-12-18T00:34:34;99689.25;;;-3.44;79.84
75409;BME280;63979;55.644;37.734;2022-12-18T00:39:35;99681.44;;;-3.44;79.28
75409;BME280;63979;55.644;37.734;2022-12-18T00:44:36;99675.16;;;-3.33;79.26
75409;BME280;63979;55.644;37.734;2022-12-18T00:49:37;99661.09;;;-3.24;79.04
75409;BME280;63979;55.644;37.734;2022-12-18T00:54:37;99659.25;;;-3.18;78.59
75409;BME280;63979;55.644;37.734;2022-12-18T00:59:38;99632.31;;;-3.18;78.77
75409;BME280;63979;55.644;37.734;2022-12-18T01:04:39;99628.81;;;-3.19;78.40
75409;BME280;63979;55.644;37.734;2022-12-18T01:09:40;99614.28;;;-3.33;77.99
75409;BME280;63979;55.644;37.734;2022-12-18T01:14:41;99609.16;;;-3.38;77.71
75409;BME280;63979;55.644;37.734;2022-12-18T01:19:42;99601.91;;;-3.22;77.09
75409;BME280;63979;55.644;37.734;2022-12-18T01:24:43;99613.97;;;-3.15;76.72
75409;BME280;63979;55.644;37.734;2022-12-18T01:29:44;99600.16;;;-3.20;77.12
75409;BME280;63979;55.644;37.734;2022-12-18T01:34:44;99609.72;;;-3.21;76.64
75409;BME280;63979;55.644;37.734;2022-12-18T01:39:45;99608.88;;;-3.21;76.62
75409;BME280;63979;55.644;37.734;2022-12-18T01:45:08;99600.94;;;-3.15;76.43
75409;BME280;63979;55.644;37.734;2022-12-18T01:55:25;99597.34;;;-3.08;75.67
75409;BME280;63979;55.644;37.734;2022-12-18T02:00:28;99598.31;;;-3.15;75.80
75409;BME280;63979;55.644;37.734;2022-12-18T02:05:49;99589.69;;;-3.19;76.17
75409;BME280;63979;55.644;37.734;2022-12-18T02:21:32;99551.06;;;-3.49;76.78
75409;BME280;63979;55.644;37.734;2022-12-18T02:26:50;99583.53;;;-3.15;76.21
75409;BME280;63979;55.644;37.734;2022-12-18T02:31:54;99579.13;;;-3.11;76.13
75409;BME280;63979;55.644;37.734;2022-12-18T02:36:57;99567.06;;;-3.18;76.52
75409;BME280;63979;55.644;37.734;2022-12-18T02:41:59;99585.47;;;-3.26;75.90
75409;BME280;63979;55.644;37.734;2022-12-18T02:47:02;99579.31;;;-3.23;75.74
75409;BME280;63979;55.644;37.734;2022-12-18T02:57:40;99568.69;;;-3.13;76.01
75409;BME280;63979;55.644;37.734;2022-12-18T03:03:04;99572.22;;;-3.15;75.75
75409;BME280;63979;55.644;37.734;2022-12-18T03:08:10;99566.09;;;-3.11;75.50
75409;BME280;63979;55.644;37.734;2022-12-18T03:13:25;99560.91;;;-3.16;75.74
75409;BME280;63979;55.644;37.734;2022-12-18T03:23:40;99582.84;;;-3.26;75.69
75409;BME280;63979;55.644;37.734;2022-12-18T03:28:46;99594.19;;;-3.28;75.95
75409;BME280;63979;55.644;37.734;2022-12-18T03:33:56;99581.25;;;-3.34;76.34
75409;BME280;63979;55.644;37.734;2022-12-18T03:38:58;99570.78;;;-3.31;76.26
75409;BME280;63979;55.644;37.734;2022-12-18T03:44:06;99581.22;;;-3.33;75.96
75409;BME280;63979;55.644;37.734;2022-12-18T03:49:23;99578.00;;;-3.49;76.48
75409;BME280;63979;55.644;37.734;2022-12-18T03:54:28;99573.44;;;-3.34;76.08
75409;BME280;63979;55.644;37.734;2022-12-18T03:59:30;99576.09;;;-3.37;76.08
75409;BME280;63979;55.644;37.734;2022-12-18T04:04:34;99587.56;;;-3.49;74.91
75409;BME280;63979;55.644;37.734;2022-12-18T04:09:36;99582.34;;;-3.49;75.26
75409;BME280;63979;55.644;37.734;2022-12-18T04:14:39;99583.22;;;-3.49;75.20
75409;BME280;63979;55.644;37.734;2022-12-18T04:19:39;99611.13;;;-3.54;75.10
75409;BME280;63979;55.644;37.734;2022-12-18T04:24:40;99627.53;;;-3.47;74.18
75409;BME280;63979;55.644;37.734;2022-12-18T04:29:41;99631.91;;;-3.46;74.68
75409;BME280;63979;55.644;37.734;2022-12-18T04:34:42;99634.59;;;-3.54;75.18
75409;BME280;63979;55.644;37.734;2022-12-18T04:39:43;99657.22;;;-3.56;74.76
75409;BME280;63979;55.644;37.734;2022-12-18T04:44:43;99660.59;;;-3.49;74.95
75409;BME280;63979;55.644;37.734;2022-12-18T04:49:45;99666.66;;;-3.46;75.06
75409;BME280;63979;55.644;37.734;2022-12-18T04:54:45;99678.06;;;-3.53;74.71
75409;BME280;63979;55.644;37.734;2022-12-18T04:59:46;99658.28;;;-3.69;74.80
75409;BME280;63979;55.644;37.734;2022-12-18T05:04:47;99680.69;;;-3.56;74.41
75409;BME280;63979;55.644;37.734;2022-12-18T05:09:48;99679.78;;;-3.53;74.67
75409;BME280;63979;55.644;37.734;2022-12-18T05:14:49;99698.00;;;-3.49;73.94
75409;BME280;63979;55.644;37.734;2022-12-18T05:19:49;99693.63;;;-3.47;74.45
75409;BME280;63979;55.644;37.734;2022-12-18T05:24:50;99697.13;;;-3.49;73.44
75409;BME280;63979;55.644;37.734;2022-12-18T05:29:51;99704.19;;;-3.57;74.08
75409;BME280;63979;55.644;37.734;2022-12-18T05:34:52;99730.25;;;-3.56;73.38
75409;BME280;63979;55.644;37.734;2022-12-18T05:39:53;99738.03;;;-3.53;74.20
75409;BME280;63979;55.644;37.734;2022-12-18T05:44:54;99751.16;;;-3.57;73.80
75409;BME280;63979;55.644;37.734;2022-12-18T05:49:54;99759.06;;;-3.65;73.67
75409;BME280;63979;55.644;37.734;2022-12-18T05:54:55;99758.22;;;-3.65;74.00
75409;BME280;63979;55.644;37.734;2022-12-18T05:59:56;99766.81;;;-3.59;74.08
75409;BME280;63979;55.644;37.734;2022-12-18T06:04:57;99771.22;;;-3.64;73.62
75409;BME280;63979;55.644;37.734;2022-12-18T06:09:58;99794.56;;;-3.53;74.26
75409;BME280;63979;55.644;37.734;2022-12-18T06:14:59;99796.22;;;-3.44;73.89
75409;BME280;63979;55.644;37.734;2022-12-18T06:20:01;99791.91;;;-3.49;73.79
75409;BME280;63979;55.644;37.734;2022-12-18T06:25:04;99804.84;;;-3.39;73.77
75409;BME280;63979;55.644;37.734;2022-12-18T06:30:06;99798.53;;;-3.23;73.77
75409;BME280;63979;55.644;37.734;2022-12-18T06:35:08;99776.31;;;-3.55;73.94
75409;BME280;63979;55.644;37.734;2022-12-18T06:40:09;99826.34;;;-3.21;73.81
75409;BME280;63979;55.644;37.734;2022-12-18T06:45:10;99797.81;;;-3.33;72.71
75409;BME280;63979;55.644;37.734;2022-12-18T06:50:12;99845.63;;;-3.32;71.38
75409;BME280;63979;55.644;37.734;2022-12-18T06:55:13;99872.38;;;-3.12;72.01
75409;BME280;63979;55.644;37.734;2022-12-18T07:00:14;99882.66;;;-3.01;71.15
75409;BME280;63979;55.644;37.734;2022-12-18T07:05:15;99880.75;;;-2.89;71.23
75409;BME280;63979;55.644;37.734;2022-12-18T07:10:17;99890.19;;;-2.78;69.79
75409;BME280;63979;55.644;37.734;2022-12-18T07:15:18;99860.53;;;-2.74;69.73
75409;BME280;63979;55.644;37.734;2022-12-18T07:20:19;99881.84;;;-2.43;68.24
75409;BME280;63979;55.644;37.734;2022-12-18T07:25:20;99918.41;;;-2.43;67.09
75409;BME280;63979;55.644;37.734;2022-12-18T07:30:21;99926.16;;;-2.36;67.04
75409;BME280;63979;55.644;37.734;2022-12-18T07:35:21;99936.63;;;-2.36;66.55
75409;BME280;63979;55.644;37.734;2022-12-18T07:40:22;99946.91;;;-2.25;66.16
75409;BME280;63979;55.644;37.734;2022-12-18T07:45:23;99942.59;;;-2.28;65.23
75409;BME280;63979;55.644;37.734;2022-12-18T07:50:24;99942.75;;;-2.37;64.94
75409;BME280;63979;55.644;37.734;2022-12-18T07:55:24;99952.44;;;-2.46;65.88
75409;BME280;63979;55.644;37.734;2022-12-18T08:00:26;99951.53;;;-2.42;65.85
75409;BME280;63979;55.644;37.734;2022-12-18T08:05:27;99927.53;;;-2.72;65.46
75409;BME280;63979;55.644;37.734;2022-12-18T08:10:28;99979.41;;;-2.41;65.44
75409;BME280;63979;55.644;37.734;2022-12-18T08:15:29;99980.25;;;-2.41;65.31
75409;BME280;63979;55.644;37.734;2022-12-18T08:20:30;99999.34;;;-2.36;66.08
75409;BME280;63979;55.644;37.734;2022-12-18T08:25:31;100010.81;;;-2.47;64.95
75409;BME280;63979;55.644;37.734;2022-12-18T08:30:32;100014.31;;;-2.50;65.45
75409;BME280;63979;55.644;37.734;2022-12-18T08:35:36;100020.56;;;-2.60;66.18
75409;BME280;63979;55.644;37.734;2022-12-18T08:40:37;100015.41;;;-2.66;66.08
75409;BME280;63979;55.644;37.734;2022-12-18T08:45:38;100024.75;;;-2.47;66.40
75409;BME280;63979;55.644;37.734;2022-12-18T08:50:39;100038.66;;;-2.45;66.70
75409;BME280;63979;55.644;37.734;2022-12-18T08:55:40;100048.91;;;-2.28;66.53
75409;BME280;63979;55.644;37.734;2022-12-18T09:00:40;100035.66;;;-2.16;66.12
75409;BME280;63979;55.644;37.734;2022-12-18T09:05:41;100033.81;;;-2.06;64.97
75409;BME280;63979;55.644;37.734;2022-12-18T09:10:44;100039.84;;;-2.01;65.53
75409;BME280;63979;55.644;37.734;2022-12-18T09:15:50;100058.19;;;-2.04;66.26
75409;BME280;63979;55.644;37.734;2022-12-18T09:20:51;100085.84;;;-1.88;65.86
75409;BME280;63979;55.644;37.734;2022-12-18T09:25:58;100082.25;;;-1.81;65.42
75409;BME280;63979;55.644;37.734;2022-12-18T09:31:04;100081.75;;;-2.06;66.23
75409;BME280;63979;55.644;37.734;2022-12-18T09:36:08;100087.44;;;-1.78;66.38
75409;BME280;63979;55.644;37.734;2022-12-18T09:46:38;100098.97;;;-1.93;66.02
75409;BME280;63979;55.644;37.734;2022-12-18T09:51:46;100111.97;;;-1.86;65.76
75409;BME280;63979;55.644;37.734;2022-12-18T09:56:48;100099.81;;;-1.89;66.14
75409;BME280;63979;55.644;37.734;2022-12-18T10:01:49;100108.34;;;-1.78;65.97
75409;BME280;63979;55.644;37.734;2022-12-18T10:07:19;100122.19;;;-1.67;65.33
75409;BME280;63979;55.644;37.734;2022-12-18T10:28:06;100121.50;;;-1.82;66.57
75409;BME280;63979;55.644;37.734;2022-12-18T10:33:34;100118.81;;;-1.78;66.31
75409;BME280;63979;55.644;37.734;2022-12-18T10:38:35;100120.97;;;-2.09;68.12
75409;BME280;63979;55.644;37.734;2022-12-18T10:43:38;100106.47;;;-2.33;68.49
75409;BME280;63979;55.644;37.734;2022-12-18T10:53:52;100154.97;;;-2.09;68.76
75409;BME280;63979;55.644;37.734;2022-12-18T10:59:06;100191.38;;;-1.91;68.84
75409;BME280;63979;55.644;37.734;2022-12-18T11:04:08;100216.66;;;-1.91;68.71
75409;BME280;63979;55.644;37.734;2022-12-18T11:09:21;100208.81;;;-1.91;68.98
75409;BME280;63979;55.644;37.734;2022-12-18T11:19:39;100199.56;;;-2.20;70.17
75409;BME280;63979;55.644;37.734;2022-12-18T11:24:41;100207.63;;;-2.41;70.25
75409;BME280;63979;55.644;37.734;2022-12-18T11:29:43;100205.00;;;-2.38;70.18
75409;BME280;63979;55.644;37.734;2022-12-18T11:34:46;100217.13;;;-2.34;70.96
75409;BME280;63979;55.644;37.734;2022-12-18T11:40:09;100228.69;;;-2.58;71.19
75409;BME280;63979;55.644;37.734;2022-12-18T11:50:25;100246.88;;;-2.48;71.80
75409;BME280;63979;55.644;37.734;2022-12-18T12:00:36;100264.41;;;-2.61;71.46
75409;BME280;63979;55.644;37.734;2022-12-18T12:05:59;100276.69;;;-2.71;71.43
75409;BME280;63979;55.644;37.734;2022-12-18T12:21:41;100293.25;;;-2.78;71.01
75409;BME280;63979;55.644;37.734;2022-12-18T12:26:51;100295.06;;;-2.85;71.37
75409;BME280;63979;55.644;37.734;2022-12-18T12:31:59;100323.72;;;-2.69;71.42
75409;BME280;63979;55.644;37.734;2022-12-18T12:42:15;100327.31;;;-2.90;72.40
75409;BME280;63979;55.644;37.734;2022-12-18T12:47:41;100341.22;;;-2.87;72.58
75409;BME280;63979;55.644;37.734;2022-12-18T12:52:54;100360.41;;;-2.91;72.74
75409;BME280;63979;55.644;37.734;2022-12-18T13:08:52;100385.78;;;-3.22;72.19
75409;BME280;63979;55.644;37.734;2022-12-18T13:13:55;100409.22;;;-3.14;73.16
75409;BME280;63979;55.644;37.734;2022-12-18T13:18:57;100412.69;;;-3.03;72.34
75409;BME280;63979;55.644;37.734;2022-12-18T13:24:24;100417.06;;;-3.16;73.16
75409;BME280;63979;55.644;37.734;2022-12-18T13:29:42;100424.00;;;-3.05;73.68
75409;BME280;63979;55.644;37.734;2022-12-18T13:34:44;100449.22;;;-3.00;73.03
75409;BME280;63979;55.644;37.734;2022-12-18T13:39:45;100433.59;;;-3.06;73.41
75409;BME280;63979;55.644;37.734;2022-12-18T13:44:46;100450.94;;;-2.94;72.78
75409;BME280;63979;55.644;37.734;2022-12-18T13:49:47;100477.03;;;-2.88;72.49
75409;BME280;63979;55.644;37.734;2022-12-18T13:54:56;100479.69;;;-2.96;72.58
75409;BME280;63979;55.644;37.734;2022-12-18T14:05:27;100499.72;;;-2.99;73.91
75409;BME280;63979;55.644;37.734;2022-12-18T14:10:29;100531.94;;;-3.06;74.63
75409;BME280;63979;55.644;37.734;2022-12-18T14:15:43;100531.06;;;-3.07;74.04
75409;BME280;63979;55.644;37.734;2022-12-18T14:20:47;100493.66;;;-3.24;74.15
75409;BME280;63979;55.644;37.734;2022-12-18T14:25:48;100517.13;;;-3.18;73.69
75409;BME280;63979;55.644;37.734;2022-12-18T14:30:49;100503.25;;;-3.28;73.29
75409;BME280;63979;55.644;37.734;2022-12-18T14:36:05;100517.16;;;-3.26;73.43
75409;BME280;63979;55.644;37.734;2022-12-18T14:41:10;100562.34;;;-2.92;73.41
75409;BME280;63979;55.644;37.734;2022-12-18T14:51:33;100587.63;;;-3.07;72.05
75409;BME280;63979;55.644;37.734;2022-12-18T14:56:37;100604.19;;;-3.07;71.04
75409;BME280;63979;55.644;37.734;2022-12-18T15:07:19;100625.03;;;-3.19;69.25
75409;BME280;63979;55.644;37.734;2022-12-18T15:12:37;100625.91;;;-3.16;69.87
75409;BME280;63979;55.644;37.734;2022-12-18T15:17:38;100638.97;;;-3.26;69.21
75409;BME280;63979;55.644;37.734;2022-12-18T15:22:39;100633.75;;;-3.43;69.51
75409;BME280;63979;55.644;37.734;2022-12-18T15:27:46;100609.34;;;-3.65;69.98
75409;BME280;63979;55.644;37.734;2022-12-18T15:32:48;100659.84;;;-3.38;69.25
75409;BME280;63979;55.644;37.734;2022-12-18T15:37:52;100661.53;;;-3.48;70.17
75409;BME280;63979;55.644;37.734;2022-12-18T15:42:54;100671.97;;;-3.50;69.87
75409;BME280;63979;55.644;37.734;2022-12-18T15:48:21;100677.19;;;-3.53;69.89
75409;BME280;63979;55.644;37.734;2022-12-18T15:53:24;100661.53;;;-3.69;69.55
75409;BME280;63979;55.644;37.734;2022-12-18T15:58:25;100683.25;;;-3.73;69.40
75409;BME280;63979;55.644;37.734;2022-12-18T16:03:27;100696.22;;;-3.86;69.62
75409;BME280;63979;55.644;37.734;2022-12-18T16:08:29;100694.44;;;-3.97;69.01
75409;BME280;63979;55.644;37.734;2022-12-18T16:13:30;100724.88;;;-3.96;69.52
75409;BME280;63979;55.644;37.734;2022-12-18T16:18:31;100734.31;;;-4.17;69.76
75409;BME280;63979;55.644;37.734;2022-12-18T16:23:32;100743.94;;;-4.10;70.17
75409;BME280;63979;55.644;37.734;2022-12-18T16:28:33;100747.38;;;-4.15;70.17
75409;BME280;63979;55.644;37.734;2022-12-18T16:33:34;100714.22;;;-4.37;70.40
75409;BME280;63979;55.644;37.734;2022-12-18T16:38:35;100763.88;;;-4.16;70.70
75409;BME280;63979;55.644;37.734;2022-12-18T16:43:41;100754.19;;;-4.34;70.89
75409;BME280;63979;55.644;37.734;2022-12-18T16:48:42;100740.22;;;-4.45;70.15
75409;BME280;63979;55.644;37.734;2022-12-18T16:53:46;100808.06;;;-4.31;69.83
75409;BME280;63979;55.644;37.734;2022-12-18T16:58:52;100761.72;;;-4.72;69.01
75409;BME280;63979;55.644;37.734;2022-12-18T17:03:58;100785.97;;;-4.79;68.43
75409;BME280;63979;55.644;37.734;2022-12-18T17:09:03;100831.06;;;-4.83;69.07
75409;BME280;63979;55.644;37.734;2022-12-18T17:14:09;100817.84;;;-5.02;69.83
75409;BME280;63979;55.644;37.734;2022-12-18T17:19:12;100834.31;;;-5.04;69.98
75409;BME280;63979;55.644;37.734;2022-12-18T17:24:15;100843.75;;;-5.14;69.47
75409;BME280;63979;55.644;37.734;2022-12-18T17:29:19;100820.00;;;-5.43;69.28
75409;BME280;63979;55.644;37.734;2022-12-18T17:34:20;100858.28;;;-5.29;68.57
75409;BME280;63979;55.644;37.734;2022-12-18T17:39:21;100872.16;;;-5.30;68.82
75409;BME280;63979;55.644;37.734;2022-12-18T17:44:22;100851.00;;;-5.56;68.81
75409;BME280;63979;55.644;37.734;2022-12-18T17:49:23;100892.66;;;-5.55;69.07
75409;BME280;63979;55.644;37.734;2022-12-18T17:54:24;100899.41;;;-5.68;69.82
75409;BME280;63979;55.644;37.734;2022-12-18T17:59:26;100906.13;;;-5.83;69.90
75409;BME280;63979;55.644;37.734;2022-12-18T18:04:27;100919.81;;;-5.93;69.75
75409;BME280;63979;55.644;37.734;2022-12-18T18:09:28;100921.44;;;-6.02;69.00
75409;BME280;63979;55.644;37.734;2022-12-18T18:14:29;100940.28;;;-6.15;69.32
75409;BME280;63979;55.644;37.734;2022-12-18T18:19:31;100933.88;;;-6.34;69.37
75409;BME280;63979;55.644;37.734;2022-12-18T18:24:32;100959.28;;;-6.64;69.92
75409;BME280;63979;55.644;37.734;2022-12-18T18:29:33;100957.34;;;-6.76;70.04
75409;BME280;63979;55.644;37.734;2022-12-18T18:34:34;100971.22;;;-6.74;69.62
75409;BME280;63979;55.644;37.734;2022-12-18T18:39:35;100975.22;;;-6.91;69.41
75409;BME280;63979;55.644;37.734;2022-12-18T18:44:36;100985.44;;;-6.97;69.57
75409;BME280;63979;55.644;37.734;2022-12-18T18:49:37;101004.19;;;-7.10;69.93
75409;BME280;63979;55.644;37.734;2022-12-18T18:54:38;101004.84;;;-7.20;70.68
75409;BME280;63979;55.644;37.734;2022-12-18T18:59:40;100972.22;;;-7.48;70.56
75409;BME280;63979;55.644;37.734;2022-12-18T19:04:41;101014.25;;;-7.26;70.47
75409;BME280;63979;55.644;37.734;2022-12-18T19:09:42;101022.72;;;-7.31;70.67
75409;BME280;63979;55.644;37.734;2022-12-18T19:14:45;101046.88;;;-7.34;71.05
75409;BME280;63979;55.644;37.734;2022-12-18T19:19:46;101060.47;;;-7.44;70.88
75409;BME280;63979;55.644;37.734;2022-12-18T19:24:47;101071.16;;;-7.66;70.76
75409;BME280;63979;55.644;37.734;2022-12-18T19:29:48;101036.72;;;-7.97;70.84
75409;BME280;63979;55.644;37.734;2022-12-18T19:34:52;101092.50;;;-7.76;70.57
75409;BME280;63979;55.644;37.734;2022-12-18T19:39:53;101103.66;;;-7.79;70.75
75409;BME280;63979;55.644;37.734;2022-12-18T19:44:55;101101.13;;;-8.09;69.72
75409;BME280;63979;55.644;37.734;2022-12-18T19:49:56;101117.25;;;-8.19;69.51
75409;BME280;63979;55.644;37.734;2022-12-18T19:54:57;101105.69;;;-8.32;69.58
75409;BME280;63979;55.644;37.734;2022-12-18T19:59:57;101120.06;;;-8.43;69.67
75409;BME280;63979;55.644;37.734;2022-12-18T20:04:58;101110.16;;;-8.58;70.43
75409;BME280;63979;55.644;37.734;2022-12-18T20:10:00;101093.28;;;-8.73;70.15
75409;BME280;63979;55.644;37.734;2022-12-18T20:15:02;101144.63;;;-8.59;70.41
75409;BME280;63979;55.644;37.734;2022-12-18T20:20:05;101145.28;;;-8.66;70.88
75409;BME280;63979;55.644;37.734;2022-12-18T20:25:07;101156.38;;;-8.68;71.29
75409;BME280;63979;55.644;37.734;2022-12-18T20:30:09;101155.50;;;-8.69;71.38
75409;BME280;63979;55.644;37.734;2022-12-18T20:35:10;101166.66;;;-8.71;71.64
75409;BME280;63979;55.644;37.734;2022-12-18T20:40:11;101180.41;;;-8.72;72.08
75409;BME280;63979;55.644;37.734;2022-12-18T20:45:13;101156.84;;;-8.82;71.86
75409;BME280;63979;55.644;37.734;2022-12-18T20:50:14;101167.06;;;-8.86;72.09
75409;BME280;63979;55.644;37.734;2022-12-18T20:55:15;101175.38;;;-8.96;72.65
75409;BME280;63979;55.644;37.734;2022-12-18T21:00:16;101175.22;;;-9.01;72.21
75409;BME280;63979;55.644;37.734;2022-12-18T21:05:18;101183.53;;;-9.09;72.27
75409;BME280;63979;55.644;37.734;2022-12-18T21:10:19;101198.00;;;-9.16;72.46
75409;BME280;63979;55.644;37.734;2022-12-18T21:15:21;101191.75;;;-9.23;72.20
75409;BME280;63979;55.644;37.734;2022-12-18T21:20:22;101193.44;;;-9.23;72.53
75409;BME280;63979;55.644;37.734;2022-12-18T21:25:23;101194.13;;;-9.29;72.06
75409;BME280;63979;55.644;37.734;2022-12-18T21:30:25;101204.47;;;-9.29;72.55
75409;BME280;63979;55.644;37.734;2022-12-18T21:35:26;101198.38;;;-9.31;72.59
75409;BME280;63979;55.644;37.734;2022-12-18T21:40:28;101211.00;;;-9.38;73.10
75409;BME280;63979;55.644;37.734;2022-12-18T21:45:28;101213.66;;;-9.37;72.66
75409;BME280;63979;55.644;37.734;2022-12-18T21:50:33;101211.84;;;-9.39;72.81
75409;BME280;63979;55.644;37.734;2022-12-18T21:55:34;101214.31;;;-9.43;73.50
75409;BME280;63979;55.644;37.734;2022-12-18T22:00:35;101226.09;;;-9.51;73.50
75409;BME280;63979;55.644;37.734;2022-12-18T22:05:36;101229.66;;;-9.47;73.41
75409;BME280;63979;55.644;37.734;2022-12-18T22:10:38;101253.69;;;-9.50;73.48
75409;BME280;63979;55.644;37.734;2022-12-18T22:15:40;101222.84;;;-9.70;73.12
75409;BME280;63979;55.644;37.734;2022-12-18T22:20:41;101263.06;;;-9.53;73.43
75409;BME280;63979;55.644;37.734;2022-12-18T22:25:42;101259.59;;;-9.54;73.00
75409;BME280;63979;55.644;37.734;2022-12-18T22:30:43;101252.00;;;-9.49;73.04
75409;BME280;63979;55.644;37.734;2022-12-18T22:35:44;101256.22;;;-9.51;73.09
75409;BME280;63979;55.644;37.734;2022-12-18T22:40:45;101241.34;;;-9.58;72.77
75409;BME280;63979;55.644;37.734;2022-12-18T22:45:46;101258.44;;;-9.62;73.28
75409;BME280;63979;55.644;37.734;2022-12-18T22:50:48;101265.78;;;-9.72;73.43
75409;BME280;63979;55.644;37.734;2022-12-18T22:55:49;101265.94;;;-9.69;73.39
75409;BME280;63979;55.644;37.734;2022-12-18T23:00:51;101273.25;;;-9.80;73.87
75409;BME280;63979;55.644;37.734;2022-12-18T23:05:52;101276.78;;;-9.78;73.69
75409;BME280;63979;55.644;37.734;2022-12-18T23:10:53;101279.25;;;-9.81;73.92
75409;BME280;63979;55.644;37.734;2022-12-18T23:15:54;101289.84;;;-9.73;74.21
75409;BME280;63979;55.644;37.734;2022-12-18T23:20:55;101278.94;;;-9.66;73.95
75409;BME280;63979;55.644;37.734;2022-12-18T23:26:02;101303.72;;;-9.71;74.23
75409;BME280;63979;55.644;37.734;2022-12-18T23:31:11;101311.09;;;-9.58;74.00
75409;BME280;63979;55.644;37.734;2022-12-18T23:36:14;101302.63;;;-9.54;73.17
75409;BME280;63979;55.644;37.734;2022-12-18T23:41:16;101278.44;;;-9.80;73.19
75409;BME280;63979;55.644;37.734;2022-12-18T23:46:20;101331.28;;;-9.48;72.80
75409;BME280;63979;55.644;37.734;2022-12-18T23:51:22;101323.75;;;-9.42;73.18
75409;BME280;63979;55.644;37.734;2022-12-18T23:56:27;101309.41;;;-9.58;72.56
